sensor_id;sensor_type;location;lat;lon;timestamp;pressure;altitude;pressure_sealevel;temperature;humidity
40089;BME280;25793;55.706;13.186;2022-07-04T00:00:03;100834.00;;;18.23;72.45
40089;BME280;25793;55.706;13.186;2022-07-04T00:02:30;100828.75;;;18.23;72.29
40089;BME280;25793;55.706;13.186;2022-07-04T00:04:57;100837.63;;;18.31;72.74
40089;BME280;25793;55.706;13.186;2022-07-04T00:07:25;100838.75;;;18.49;72.51
40089;BME280;25793;55.706;13.186;2022-07-04T00:09:51;100840.69;;;18.56;71.99
40089;BME280;25793;55.706;13.186;2022-07-04T00:12:18;100831.13;;;18.55;72.27
40089;BME280;25793;55.706;13.186;2022-07-04T00:14:45;100817.97;;;18.45;72.54
40089;BME280;25793;55.706;13.186;2022-07-04T00:17:12;100817.97;;;18.45;72.85
40089;BME280;25793;55.706;13.186;2022-07-04T00:19:38;100829.34;;;18.46;72.85
40089;BME280;25793;55.706;13.186;2022-07-04T00:22:05;100827.53;;;18.46;73.02
40089;BME280;25793;55.706;13.186;2022-07-04T00:24:31;100824.34;;;18.43;73.11
40089;BME280;25793;55.706;13.186;2022-07-04T00:26:58;100819.91;;;18.34;73.16
40089;BME280;25793;55.706;13.186;2022-07-04T00:29:25;100808.94;;;18.38;73.11
40089;BME280;25793;55.706;13.186;2022-07-04T00:31:51;100804.09;;;18.43;72.84
40089;BME280;25793;55.706;13.186;2022-07-04T00:34:18;100813.28;;;18.49;72.34
40089;BME280;25793;55.706;13.186;2022-07-04T00:36:45;100806.88;;;18.52;72.20
40089;BME280;25793;55.706;13.186;2022-07-04T00:39:12;100811.34;;;18.51;72.28
40089;BME280;25793;55.706;13.186;2022-07-04T00:41:38;100818.22;;;18.42;72.31
40089;BME280;25793;55.706;13.186;2022-07-04T00:44:07;100806.03;;;18.41;72.67
40089;BME280;25793;55.706;13.186;2022-07-04T00:46:39;100794.69;;;18.41;72.30
40089;BME280;25793;55.706;13.186;2022-07-04T00:49:07;100790.66;;;18.37;72.59
40089;BME280;25793;55.706;13.186;2022-07-04T00:51:34;100796.88;;;18.26;72.96
40089;BME280;25793;55.706;13.186;2022-07-04T00:54:05;100790.63;;;18.17;73.31
40089;BME280;25793;55.706;13.186;2022-07-04T00:56:35;100776.78;;;18.15;73.40
40089;BME280;25793;55.706;13.186;2022-07-04T00:59:02;100787.81;;;17.99;73.96
40089;BME280;25793;55.706;13.186;2022-07-04T01:01:29;100789.09;;;18.05;74.24
40089;BME280;25793;55.706;13.186;2022-07-04T01:03:56;100799.78;;;18.13;74.10
40089;BME280;25793;55.706;13.186;2022-07-04T01:06:23;100789.97;;;18.15;73.84
40089;BME280;25793;55.706;13.186;2022-07-04T01:08:50;100786.63;;;18.23;73.53
40089;BME280;25793;55.706;13.186;2022-07-04T01:11:17;100783.41;;;18.19;73.09
40089;BME280;25793;55.706;13.186;2022-07-04T01:13:44;100790.63;;;18.17;73.46
40089;BME280;25793;55.706;13.186;2022-07-04T01:16:13;100793.41;;;18.15;73.46
40089;BME280;25793;55.706;13.186;2022-07-04T01:18:40;100791.03;;;18.12;72.88
40089;BME280;25793;55.706;13.186;2022-07-04T01:21:08;100793.25;;;18.17;72.99
40089;BME280;25793;55.706;13.186;2022-07-04T01:23:39;100786.63;;;18.23;72.85
40089;BME280;25793;55.706;13.186;2022-07-04T01:26:06;100794.38;;;18.24;72.51
40089;BME280;25793;55.706;13.186;2022-07-04T01:28:34;100795.22;;;18.25;72.13
40089;BME280;25793;55.706;13.186;2022-07-04T01:31:01;100800.47;;;18.15;72.12
40089;BME280;25793;55.706;13.186;2022-07-04T01:33:28;100798.41;;;18.19;72.11
40089;BME280;25793;55.706;13.186;2022-07-04T01:35:55;100803.50;;;18.00;72.16
40089;BME280;25793;55.706;13.186;2022-07-04T01:38:22;100800.06;;;17.79;73.32
40089;BME280;25793;55.706;13.186;2022-07-04T01:40:49;100795.38;;;17.82;73.51
40089;BME280;25793;55.706;13.186;2022-07-04T01:43:16;100802.16;;;17.85;73.59
40089;BME280;25793;55.706;13.186;2022-07-04T01:45:43;100804.34;;;17.80;74.01
40089;BME280;25793;55.706;13.186;2022-07-04T01:48:11;100804.72;;;17.34;75.17
40089;BME280;25793;55.706;13.186;2022-07-04T01:50:39;100810.13;;;17.11;76.50
40089;BME280;25793;55.706;13.186;2022-07-04T01:53:09;100818.19;;;16.98;76.63
40089;BME280;25793;55.706;13.186;2022-07-04T01:55:35;100808.41;;;16.89;77.25
40089;BME280;25793;55.706;13.186;2022-07-04T01:58:02;100815.72;;;16.86;77.07
40089;BME280;25793;55.706;13.186;2022-07-04T02:00:29;100801.81;;;16.74;77.63
40089;BME280;25793;55.706;13.186;2022-07-04T02:03:14;100795.47;;;16.76;77.69
40089;BME280;25793;55.706;13.186;2022-07-04T02:05:42;100804.50;;;16.83;77.79
40089;BME280;25793;55.706;13.186;2022-07-04T02:08:09;100799.56;;;16.90;77.87
40089;BME280;25793;55.706;13.186;2022-07-04T02:10:37;100801.22;;;17.03;77.73
40089;BME280;25793;55.706;13.186;2022-07-04T02:13:03;100804.66;;;17.03;77.57
40089;BME280;25793;55.706;13.186;2022-07-04T02:15:36;100803.41;;;16.86;77.44
40089;BME280;25793;55.706;13.186;2022-07-04T02:18:05;100802.81;;;16.61;78.41
40089;BME280;25793;55.706;13.186;2022-07-04T02:20:33;100813.34;;;16.50;79.11
40089;BME280;25793;55.706;13.186;2022-07-04T02:23:00;100809.06;;;16.49;79.23
40089;BME280;25793;55.706;13.186;2022-07-04T02:25:26;100809.00;;;16.28;79.66
40089;BME280;25793;55.706;13.186;2022-07-04T02:27:56;100814.38;;;16.37;80.00
40089;BME280;25793;55.706;13.186;2022-07-04T02:30:24;100813.66;;;16.35;79.81
40089;BME280;25793;55.706;13.186;2022-07-04T02:32:51;100823.91;;;16.38;80.08
40089;BME280;25793;55.706;13.186;2022-07-04T02:35:17;100817.63;;;16.18;80.86
40089;BME280;25793;55.706;13.186;2022-07-04T02:37:44;100813.81;;;16.22;81.28
40089;BME280;25793;55.706;13.186;2022-07-04T02:40:11;100817.88;;;16.15;81.66
40089;BME280;25793;55.706;13.186;2022-07-04T02:42:38;100814.97;;;16.30;82.05
40089;BME280;25793;55.706;13.186;2022-07-04T02:45:06;100810.72;;;16.50;81.47
40089;BME280;25793;55.706;13.186;2022-07-04T02:47:33;100807.13;;;16.62;80.54
40089;BME280;25793;55.706;13.186;2022-07-04T02:50:01;100799.69;;;16.67;80.28
40089;BME280;25793;55.706;13.186;2022-07-04T02:52:29;100805.06;;;16.66;80.41
40089;BME280;25793;55.706;13.186;2022-07-04T02:54:56;100800.09;;;16.63;80.75
40089;BME280;25793;55.706;13.186;2022-07-04T02:57:23;100805.22;;;16.53;80.55
40089;BME280;25793;55.706;13.186;2022-07-04T02:59:50;100808.63;;;16.44;81.00
40089;BME280;25793;55.706;13.186;2022-07-04T03:02:17;100803.28;;;16.34;81.56
40089;BME280;25793;55.706;13.186;2022-07-04T03:04:44;100806.13;;;16.42;81.24
40089;BME280;25793;55.706;13.186;2022-07-04T03:07:11;100812.94;;;16.33;81.30
40089;BME280;25793;55.706;13.186;2022-07-04T03:09:38;100803.38;;;16.44;80.85
40089;BME280;25793;55.706;13.186;2022-07-04T03:12:05;100811.25;;;16.44;80.52
40089;BME280;25793;55.706;13.186;2022-07-04T03:14:32;100812.66;;;16.48;79.97
40089;BME280;25793;55.706;13.186;2022-07-04T03:16:58;100809.19;;;16.47;80.17
40089;BME280;25793;55.706;13.186;2022-07-04T03:19:25;100807.28;;;16.49;79.84
40089;BME280;25793;55.706;13.186;2022-07-04T03:21:52;100810.66;;;16.40;80.18
40089;BME280;25793;55.706;13.186;2022-07-04T03:24:19;100801.97;;;16.39;79.94
40089;BME280;25793;55.706;13.186;2022-07-04T03:26:45;100805.66;;;16.37;79.96
40089;BME280;25793;55.706;13.186;2022-07-04T03:29:15;100802.78;;;16.40;79.75
40089;BME280;25793;55.706;13.186;2022-07-04T03:31:41;100806.44;;;16.49;79.96
40089;BME280;25793;55.706;13.186;2022-07-04T03:34:08;100797.34;;;16.53;79.84
40089;BME280;25793;55.706;13.186;2022-07-04T03:36:35;100800.28;;;16.71;79.48
40089;BME280;25793;55.706;13.186;2022-07-04T03:39:02;100805.94;;;16.88;78.59
40089;BME280;25793;55.706;13.186;2022-07-04T03:41:29;100805.22;;;16.97;78.06
40089;BME280;25793;55.706;13.186;2022-07-04T03:43:56;100803.41;;;16.97;78.17
40089;BME280;25793;55.706;13.186;2022-07-04T03:46:22;100814.97;;;16.95;77.77
40089;BME280;25793;55.706;13.186;2022-07-04T03:48:49;100809.97;;;16.92;77.73
40089;BME280;25793;55.706;13.186;2022-07-04T03:51:16;100812.00;;;16.88;77.72
40089;BME280;25793;55.706;13.186;2022-07-04T03:53:43;100815.84;;;16.84;77.38
40089;BME280;25793;55.706;13.186;2022-07-04T03:56:17;100812.91;;;16.77;77.65
40089;BME280;25793;55.706;13.186;2022-07-04T03:58:43;100808.75;;;16.75;77.93
40089;BME280;25793;55.706;13.186;2022-07-04T04:01:18;100806.19;;;16.84;77.80
40089;BME280;25793;55.706;13.186;2022-07-04T04:03:46;100802.56;;;16.97;77.26
40089;BME280;25793;55.706;13.186;2022-07-04T04:06:31;100801.63;;;17.19;77.09
40089;BME280;25793;55.706;13.186;2022-07-04T04:08:58;100809.47;;;17.40;76.26
40089;BME280;25793;55.706;13.186;2022-07-04T04:11:24;100808.09;;;17.46;76.27
40089;BME280;25793;55.706;13.186;2022-07-04T04:13:51;100806.78;;;17.31;76.22
40089;BME280;25793;55.706;13.186;2022-07-04T04:16:17;100808.41;;;17.01;77.22
40089;BME280;25793;55.706;13.186;2022-07-04T04:18:44;100806.03;;;16.97;77.70
40089;BME280;25793;55.706;13.186;2022-07-04T04:21:11;100812.41;;;16.83;78.75
40089;BME280;25793;55.706;13.186;2022-07-04T04:23:38;100819.31;;;16.84;78.80
40089;BME280;25793;55.706;13.186;2022-07-04T04:26:04;100815.72;;;16.97;79.02
40089;BME280;25793;55.706;13.186;2022-07-04T04:28:31;100821.84;;;17.07;78.68
40089;BME280;25793;55.706;13.186;2022-07-04T04:30:57;100816.34;;;17.10;78.29
40089;BME280;25793;55.706;13.186;2022-07-04T04:33:25;100815.09;;;16.93;78.99
40089;BME280;25793;55.706;13.186;2022-07-04T04:35:51;100816.53;;;16.97;78.75
40089;BME280;25793;55.706;13.186;2022-07-04T04:38:18;100824.56;;;17.17;78.36
40089;BME280;25793;55.706;13.186;2022-07-04T04:40:45;100820.56;;;17.23;78.62
40089;BME280;25793;55.706;13.186;2022-07-04T04:43:11;100826.03;;;17.10;79.35
40089;BME280;25793;55.706;13.186;2022-07-04T04:45:38;100819.22;;;17.07;80.05
40089;BME280;25793;55.706;13.186;2022-07-04T04:48:06;100830.75;;;17.37;79.41
40089;BME280;25793;55.706;13.186;2022-07-04T04:50:34;100819.16;;;17.40;80.26
40089;BME280;25793;55.706;13.186;2022-07-04T04:53:01;100829.22;;;17.35;80.34
40089;BME280;25793;55.706;13.186;2022-07-04T04:55:28;100830.38;;;17.73;79.99
40089;BME280;25793;55.706;13.186;2022-07-04T04:57:54;100823.69;;;17.38;82.00
40089;BME280;25793;55.706;13.186;2022-07-04T05:00:21;100833.28;;;17.49;81.33
40089;BME280;25793;55.706;13.186;2022-07-04T05:05:46;100830.19;;;17.65;82.12
40089;BME280;25793;55.706;13.186;2022-07-04T05:08:16;100830.66;;;17.80;82.06
40089;BME280;25793;55.706;13.186;2022-07-04T05:10:43;100833.13;;;18.02;81.42
40089;BME280;25793;55.706;13.186;2022-07-04T05:13:10;100833.88;;;17.52;82.90
40089;BME280;25793;55.706;13.186;2022-07-04T05:15:37;100834.00;;;17.82;82.31
40089;BME280;25793;55.706;13.186;2022-07-04T05:18:04;100831.84;;;17.66;82.82
40089;BME280;25793;55.706;13.186;2022-07-04T05:20:33;100827.81;;;17.62;82.81
40089;BME280;25793;55.706;13.186;2022-07-04T05:23:00;100833.69;;;17.75;82.96
40089;BME280;25793;55.706;13.186;2022-07-04T05:25:27;100836.00;;;17.58;83.40
40089;BME280;25793;55.706;13.186;2022-07-04T05:27:53;100834.94;;;17.81;83.01
40089;BME280;25793;55.706;13.186;2022-07-04T05:30:20;100837.75;;;17.48;83.36
40089;BME280;25793;55.706;13.186;2022-07-04T05:32:47;100831.31;;;17.41;83.60
40089;BME280;25793;55.706;13.186;2022-07-04T05:35:13;100837.25;;;17.64;82.68
40089;BME280;25793;55.706;13.186;2022-07-04T05:37:40;100838.69;;;18.09;81.26
40089;BME280;25793;55.706;13.186;2022-07-04T05:40:07;100848.31;;;18.40;80.10
40089;BME280;25793;55.706;13.186;2022-07-04T05:42:34;100846.63;;;17.88;81.35
40089;BME280;25793;55.706;13.186;2022-07-04T05:45:01;100854.28;;;18.32;80.39
40089;BME280;25793;55.706;13.186;2022-07-04T05:47:28;100853.50;;;17.79;81.59
40089;BME280;25793;55.706;13.186;2022-07-04T05:49:55;100858.66;;;18.12;81.25
40089;BME280;25793;55.706;13.186;2022-07-04T05:52:23;100854.69;;;17.65;81.08
40089;BME280;25793;55.706;13.186;2022-07-04T06:34:34;100865.53;;;18.64;76.25
40089;BME280;25793;55.706;13.186;2022-07-04T06:37:20;100863.09;;;17.90;78.32
40089;BME280;25793;55.706;13.186;2022-07-04T06:39:49;100876.00;;;17.62;78.38
40089;BME280;25793;55.706;13.186;2022-07-04T06:42:19;100863.03;;;18.01;77.34
40089;BME280;25793;55.706;13.186;2022-07-04T06:44:55;100881.59;;;18.60;75.52
40089;BME280;25793;55.706;13.186;2022-07-04T06:47:22;100886.56;;;18.34;75.63
40089;BME280;25793;55.706;13.186;2022-07-04T06:49:49;100880.34;;;17.73;77.42
40089;BME280;25793;55.706;13.186;2022-07-04T06:52:15;100873.03;;;17.77;77.97
40089;BME280;25793;55.706;13.186;2022-07-04T06:54:42;100879.66;;;17.50;78.54
40089;BME280;25793;55.706;13.186;2022-07-04T06:57:17;100891.97;;;18.42;75.32
40089;BME280;25793;55.706;13.186;2022-07-04T06:59:56;100881.28;;;18.34;73.02
40089;BME280;25793;55.706;13.186;2022-07-04T07:02:23;100882.16;;;18.64;73.40
40089;BME280;25793;55.706;13.186;2022-07-04T07:04:55;100896.03;;;18.76;72.97
40089;BME280;25793;55.706;13.186;2022-07-04T07:07:23;100885.03;;;18.41;72.56
40089;BME280;25793;55.706;13.186;2022-07-04T07:09:52;100897.97;;;18.84;71.57
40089;BME280;25793;55.706;13.186;2022-07-04T07:12:18;100887.31;;;18.95;72.21
40089;BME280;25793;55.706;13.186;2022-07-04T07:14:45;100890.34;;;18.81;71.74
40089;BME280;25793;55.706;13.186;2022-07-04T07:17:12;100887.81;;;18.40;73.34
40089;BME280;25793;55.706;13.186;2022-07-04T07:19:39;100886.84;;;18.41;74.01
40089;BME280;25793;55.706;13.186;2022-07-04T07:22:06;100889.38;;;18.62;72.86
40089;BME280;25793;55.706;13.186;2022-07-04T07:24:32;100886.94;;;19.10;70.43
40089;BME280;25793;55.706;13.186;2022-07-04T07:27:00;100893.44;;;18.96;71.29
40089;BME280;25793;55.706;13.186;2022-07-04T07:29:29;100893.38;;;18.56;72.98
40089;BME280;25793;55.706;13.186;2022-07-04T07:31:56;100894.75;;;18.41;72.37
40089;BME280;25793;55.706;13.186;2022-07-04T07:34:23;100890.03;;;18.44;72.23
40089;BME280;25793;55.706;13.186;2022-07-04T07:36:50;100882.03;;;18.95;71.02
40089;BME280;25793;55.706;13.186;2022-07-04T07:39:17;100889.38;;;19.41;68.50
40089;BME280;25793;55.706;13.186;2022-07-04T07:41:43;100886.03;;;19.39;67.66
40089;BME280;25793;55.706;13.186;2022-07-04T07:44:10;100881.50;;;19.11;69.62
40089;BME280;25793;55.706;13.186;2022-07-04T07:46:37;100895.50;;;18.72;71.54
40089;BME280;25793;55.706;13.186;2022-07-04T07:49:04;100886.03;;;19.48;68.67
40089;BME280;25793;55.706;13.186;2022-07-04T07:51:30;100887.75;;;19.10;69.47
40089;BME280;25793;55.706;13.186;2022-07-04T07:53:58;100892.88;;;19.12;69.42
40089;BME280;25793;55.706;13.186;2022-07-04T07:56:43;100885.34;;;18.77;68.81
40089;BME280;25793;55.706;13.186;2022-07-04T07:59:10;100896.31;;;18.83;68.71
40089;BME280;25793;55.706;13.186;2022-07-04T08:01:36;100893.84;;;19.20;66.95
40089;BME280;25793;55.706;13.186;2022-07-04T08:04:03;100902.56;;;19.41;66.12
40089;BME280;25793;55.706;13.186;2022-07-04T08:06:49;100911.41;;;18.71;67.18
40089;BME280;25793;55.706;13.186;2022-07-04T08:09:36;100906.59;;;19.45;66.13
40089;BME280;25793;55.706;13.186;2022-07-04T08:12:04;100908.25;;;19.36;66.79
40089;BME280;25793;55.706;13.186;2022-07-04T08:14:32;100927.41;;;19.48;66.89
40089;BME280;25793;55.706;13.186;2022-07-04T08:16:59;100920.72;;;19.54;65.49
40089;BME280;25793;55.706;13.186;2022-07-04T08:19:26;100907.19;;;18.99;66.07
40089;BME280;25793;55.706;13.186;2022-07-04T08:21:53;100913.78;;;19.33;65.21
40089;BME280;25793;55.706;13.186;2022-07-04T08:24:39;100914.06;;;19.49;63.08
40089;BME280;25793;55.706;13.186;2022-07-04T08:27:09;100913.38;;;19.47;64.53
40089;BME280;25793;55.706;13.186;2022-07-04T08:29:36;100913.75;;;19.62;63.52
40089;BME280;25793;55.706;13.186;2022-07-04T08:32:03;100913.53;;;19.93;63.58
40089;BME280;25793;55.706;13.186;2022-07-04T08:34:30;100917.63;;;19.58;64.36
40089;BME280;25793;55.706;13.186;2022-07-04T08:36:57;100913.56;;;19.16;65.62
40089;BME280;25793;55.706;13.186;2022-07-04T08:39:23;100913.94;;;19.41;65.17
40089;BME280;25793;55.706;13.186;2022-07-04T08:41:52;100918.69;;;19.28;66.35
40089;BME280;25793;55.706;13.186;2022-07-04T08:44:23;100922.44;;;19.83;66.14
40089;BME280;25793;55.706;13.186;2022-07-04T08:46:52;100933.28;;;19.79;64.80
40089;BME280;25793;55.706;13.186;2022-07-04T08:49:24;100944.69;;;19.80;63.81
40089;BME280;25793;55.706;13.186;2022-07-04T08:52:02;100922.66;;;19.51;63.38
40089;BME280;25793;55.706;13.186;2022-07-04T08:54:31;100930.81;;;19.68;63.42
40089;BME280;25793;55.706;13.186;2022-07-04T08:57:18;100916.38;;;19.62;62.92
40089;BME280;25793;55.706;13.186;2022-07-04T09:00:05;100917.25;;;19.43;61.95
40089;BME280;25793;55.706;13.186;2022-07-04T09:02:35;100914.25;;;19.18;62.97
40089;BME280;25793;55.706;13.186;2022-07-04T09:05:16;100915.03;;;19.48;61.04
40089;BME280;25793;55.706;13.186;2022-07-04T09:07:47;100917.03;;;18.97;62.64
40089;BME280;25793;55.706;13.186;2022-07-04T09:10:14;100923.38;;;19.44;62.01
40089;BME280;25793;55.706;13.186;2022-07-04T09:12:42;100914.66;;;19.33;62.95
40089;BME280;25793;55.706;13.186;2022-07-04T09:15:29;100940.69;;;19.66;63.58
40089;BME280;25793;55.706;13.186;2022-07-04T09:17:55;100942.28;;;20.34;61.59
40089;BME280;25793;55.706;13.186;2022-07-04T09:20:22;100944.53;;;20.29;60.77
40089;BME280;25793;55.706;13.186;2022-07-04T09:22:51;100960.81;;;20.24;61.60
40089;BME280;25793;55.706;13.186;2022-07-04T09:25:19;100957.72;;;19.81;63.28
40089;BME280;25793;55.706;13.186;2022-07-04T09:27:49;100955.78;;;19.84;62.07
40089;BME280;25793;55.706;13.186;2022-07-04T09:30:18;100971.72;;;20.02;59.28
40089;BME280;25793;55.706;13.186;2022-07-04T09:32:47;100973.00;;;19.88;59.17
40089;BME280;25793;55.706;13.186;2022-07-04T09:35:19;100963.28;;;19.98;58.38
40089;BME280;25793;55.706;13.186;2022-07-04T09:37:51;100950.84;;;20.08;59.28
40089;BME280;25793;55.706;13.186;2022-07-04T09:42:47;100951.28;;;20.04;60.73
40089;BME280;25793;55.706;13.186;2022-07-04T09:45:17;100944.06;;;20.34;58.56
40089;BME280;25793;55.706;13.186;2022-07-04T09:47:45;100950.78;;;20.28;57.75
40089;BME280;25793;55.706;13.186;2022-07-04T09:50:17;100942.81;;;20.38;55.13
40089;BME280;25793;55.706;13.186;2022-07-04T09:55:31;100953.13;;;20.03;54.88
40089;BME280;25793;55.706;13.186;2022-07-04T09:58:04;100951.41;;;20.40;54.08
40089;BME280;25793;55.706;13.186;2022-07-04T10:03:23;100957.03;;;19.89;54.50
40089;BME280;25793;55.706;13.186;2022-07-04T10:06:06;100946.88;;;19.94;55.20
40089;BME280;25793;55.706;13.186;2022-07-04T10:08:33;100947.19;;;19.72;54.01
40089;BME280;25793;55.706;13.186;2022-07-04T10:11:02;100950.44;;;19.46;55.07
40089;BME280;25793;55.706;13.186;2022-07-04T10:13:35;100941.72;;;19.26;56.08
40089;BME280;25793;55.706;13.186;2022-07-04T10:16:02;100947.34;;;19.60;55.72
40089;BME280;25793;55.706;13.186;2022-07-04T10:18:29;100932.38;;;19.51;55.10
40089;BME280;25793;55.706;13.186;2022-07-04T10:20:56;100928.38;;;20.04;55.28
40089;BME280;25793;55.706;13.186;2022-07-04T10:23:24;100930.88;;;20.34;54.40
40089;BME280;25793;55.706;13.186;2022-07-04T10:25:53;100937.16;;;20.51;54.70
40089;BME280;25793;55.706;13.186;2022-07-04T10:28:22;100940.00;;;20.12;52.93
40089;BME280;25793;55.706;13.186;2022-07-04T10:30:53;100949.34;;;20.34;53.05
40089;BME280;25793;55.706;13.186;2022-07-04T10:33:29;100950.50;;;20.31;53.90
40089;BME280;25793;55.706;13.186;2022-07-04T10:36:01;100948.13;;;20.56;51.53
40089;BME280;25793;55.706;13.186;2022-07-04T10:38:34;100937.13;;;19.38;53.95
40089;BME280;25793;55.706;13.186;2022-07-04T10:41:08;100942.47;;;19.75;54.64
40089;BME280;25793;55.706;13.186;2022-07-04T10:51:14;100945.38;;;20.20;53.88
40089;BME280;25793;55.706;13.186;2022-07-04T10:53:59;100951.94;;;20.44;53.37
40089;BME280;25793;55.706;13.186;2022-07-04T10:58:55;100959.81;;;20.99;52.90
40089;BME280;25793;55.706;13.186;2022-07-04T11:01:23;100948.00;;;20.58;54.07
40089;BME280;25793;55.706;13.186;2022-07-04T11:03:52;100954.81;;;20.78;52.51
40089;BME280;25793;55.706;13.186;2022-07-04T11:09:20;100958.63;;;21.12;50.47
40089;BME280;25793;55.706;13.186;2022-07-04T11:19:34;100934.00;;;20.93;52.53
40089;BME280;25793;55.706;13.186;2022-07-04T11:22:04;100943.66;;;20.29;55.08
40089;BME280;25793;55.706;13.186;2022-07-04T11:24:32;100944.22;;;20.60;55.29
40089;BME280;25793;55.706;13.186;2022-07-04T11:26:59;100947.28;;;21.20;53.80
40089;BME280;25793;55.706;13.186;2022-07-04T11:29:28;100942.34;;;20.70;52.58
40089;BME280;25793;55.706;13.186;2022-07-04T11:31:55;100951.63;;;20.75;53.20
40089;BME280;25793;55.706;13.186;2022-07-04T11:34:23;100949.50;;;20.32;54.15
40089;BME280;25793;55.706;13.186;2022-07-04T11:36:50;100948.31;;;20.45;53.82
40089;BME280;25793;55.706;13.186;2022-07-04T11:39:18;100942.66;;;20.39;55.63
40089;BME280;25793;55.706;13.186;2022-07-04T11:41:49;100955.91;;;20.30;54.96
40089;BME280;25793;55.706;13.186;2022-07-04T11:44:41;100945.50;;;20.74;55.43
40089;BME280;25793;55.706;13.186;2022-07-04T11:47:37;100950.59;;;20.39;54.36
40089;BME280;25793;55.706;13.186;2022-07-04T11:50:06;100946.16;;;20.02;54.56
40089;BME280;25793;55.706;13.186;2022-07-04T11:52:40;100953.31;;;20.48;54.56
40089;BME280;25793;55.706;13.186;2022-07-04T11:55:27;100936.94;;;20.90;53.80
40089;BME280;25793;55.706;13.186;2022-07-04T11:57:54;100947.22;;;20.93;53.34
40089;BME280;25793;55.706;13.186;2022-07-04T12:00:28;100942.94;;;20.64;53.95
40089;BME280;25793;55.706;13.186;2022-07-04T12:02:59;100938.31;;;20.20;53.62
40089;BME280;25793;55.706;13.186;2022-07-04T12:05:26;100950.44;;;20.87;53.19
40089;BME280;25793;55.706;13.186;2022-07-04T12:07:53;100937.31;;;20.49;52.98
40089;BME280;25793;55.706;13.186;2022-07-04T12:10:40;100931.44;;;21.02;52.56
40089;BME280;25793;55.706;13.186;2022-07-04T12:13:13;100931.44;;;21.02;51.99
40089;BME280;25793;55.706;13.186;2022-07-04T12:15:44;100934.25;;;21.26;50.71
40089;BME280;25793;55.706;13.186;2022-07-04T12:20:42;100918.00;;;21.39;50.13
40089;BME280;25793;55.706;13.186;2022-07-04T12:23:09;100913.47;;;21.76;50.01
40089;BME280;25793;55.706;13.186;2022-07-04T12:25:37;100914.75;;;21.27;49.92
40089;BME280;25793;55.706;13.186;2022-07-04T12:28:09;100922.13;;;21.16;50.54
40089;BME280;25793;55.706;13.186;2022-07-04T12:30:58;100921.88;;;20.73;50.17
40089;BME280;25793;55.706;13.186;2022-07-04T12:33:27;100922.34;;;21.04;49.56
40089;BME280;25793;55.706;13.186;2022-07-04T12:36:05;100916.94;;;21.50;48.30
40089;BME280;25793;55.706;13.186;2022-07-04T12:38:37;100904.72;;;21.57;48.09
40089;BME280;25793;55.706;13.186;2022-07-04T12:41:08;100916.69;;;21.17;49.85
40089;BME280;25793;55.706;13.186;2022-07-04T12:46:32;100914.66;;;21.55;48.99
40089;BME280;25793;55.706;13.186;2022-07-04T12:49:16;100908.56;;;21.37;49.57
40089;BME280;25793;55.706;13.186;2022-07-04T12:51:44;100908.44;;;21.65;48.95
40089;BME280;25793;55.706;13.186;2022-07-04T12:54:11;100916.16;;;22.27;47.04
40089;BME280;25793;55.706;13.186;2022-07-04T12:56:43;100919.44;;;22.21;48.44
40089;BME280;25793;55.706;13.186;2022-07-04T12:59:15;100913.63;;;22.09;48.29
40089;BME280;25793;55.706;13.186;2022-07-04T13:01:44;100904.13;;;21.98;47.91
40089;BME280;25793;55.706;13.186;2022-07-04T13:04:12;100913.56;;;22.01;47.47
40089;BME280;25793;55.706;13.186;2022-07-04T13:06:40;100911.03;;;21.12;48.89
40089;BME280;25793;55.706;13.186;2022-07-04T13:09:07;100909.88;;;21.14;49.60
40089;BME280;25793;55.706;13.186;2022-07-04T13:11:35;100906.03;;;21.09;49.73
40089;BME280;25793;55.706;13.186;2022-07-04T13:14:20;100905.38;;;20.89;49.95
40089;BME280;25793;55.706;13.186;2022-07-04T13:16:47;100907.94;;;20.98;51.11
40089;BME280;25793;55.706;13.186;2022-07-04T13:19:14;100901.91;;;21.59;49.88
40089;BME280;25793;55.706;13.186;2022-07-04T13:21:43;100928.47;;;21.05;49.89
40089;BME280;25793;55.706;13.186;2022-07-04T13:24:10;100910.78;;;20.87;50.00
40089;BME280;25793;55.706;13.186;2022-07-04T13:26:37;100909.75;;;21.42;49.81
40089;BME280;25793;55.706;13.186;2022-07-04T13:29:04;100905.63;;;21.66;49.14
40089;BME280;25793;55.706;13.186;2022-07-04T13:31:37;100915.69;;;20.36;52.14
40089;BME280;25793;55.706;13.186;2022-07-04T13:34:04;100903.53;;;20.89;51.16
40089;BME280;25793;55.706;13.186;2022-07-04T13:36:36;100909.34;;;20.57;52.32
40089;BME280;25793;55.706;13.186;2022-07-04T13:39:03;100899.72;;;20.37;53.45
40089;BME280;25793;55.706;13.186;2022-07-04T13:41:32;100909.78;;;19.96;54.76
40089;BME280;25793;55.706;13.186;2022-07-04T13:44:01;100919.03;;;20.38;54.34
40089;BME280;25793;55.706;13.186;2022-07-04T13:46:28;100914.22;;;19.95;56.01
40089;BME280;25793;55.706;13.186;2022-07-04T13:48:55;100916.84;;;19.48;56.84
40089;BME280;25793;55.706;13.186;2022-07-04T13:51:22;100923.38;;;20.01;56.61
40089;BME280;25793;55.706;13.186;2022-07-04T13:53:49;100913.47;;;20.13;54.68
40089;BME280;25793;55.706;13.186;2022-07-04T13:56:16;100905.72;;;20.02;55.57
40089;BME280;25793;55.706;13.186;2022-07-04T13:58:44;100900.94;;;20.15;55.21
40089;BME280;25793;55.706;13.186;2022-07-04T14:01:12;100908.13;;;20.69;55.05
40089;BME280;25793;55.706;13.186;2022-07-04T14:03:42;100905.66;;;21.04;54.82
40089;BME280;25793;55.706;13.186;2022-07-04T14:06:09;100905.41;;;21.33;54.48